createdAt,value
2019-01-16T00:00:52.839Z,4.25
2019-01-16T00:03:35.504Z,4.85
2019-01-16T00:06:22.244Z,3.58
2019-01-16T00:09:00.071Z,3.85
2019-01-16T00:11:34.304Z,3.45
2019-01-16T00:14:11.849Z,3.50
2019-01-16T00:16:52.848Z,4.33
2019-01-16T00:19:43.032Z,4.25
2019-01-16T00:22:30.962Z,3.50
2019-01-16T00:25:02.440Z,3.65
2019-01-16T00:27:39.528Z,4.33
2019-01-16T00:30:13.716Z,3.80
2019-01-16T00:32:50.188Z,4.12
2019-01-16T00:35:31.662Z,3.17
2019-01-16T00:38:04.104Z,4.17
2019-01-16T00:40:54.764Z,3.33
2019-01-16T00:43:37.641Z,3.37
2019-01-16T00:46:26.768Z,4.20
2019-01-16T00:49:14.478Z,3.77
2019-01-16T00:51:53.061Z,4.12
2019-01-16T00:54:40.232Z,3.70
2019-01-16T00:57:14.234Z,3.50
2019-01-16T00:59:46.510Z,4.05
2019-01-16T01:02:46.508Z,2.98
2019-01-16T01:05:18.397Z,3.40
2019-01-16T01:07:53.101Z,4.67
2019-01-16T01:10:25.841Z,4.15
2019-01-16T01:13:10.249Z,3.80
2019-01-16T01:15:48.080Z,4.12
2019-01-16T01:18:20.585Z,4.03
2019-01-16T01:20:53.291Z,3.15
2019-01-16T01:23:41.356Z,3.80
2019-01-16T01:26:18.572Z,3.58
2019-01-16T01:28:53.544Z,2.72
2019-01-16T01:31:27.872Z,3.35
2019-01-16T01:34:05.424Z,3.20
2019-01-16T01:40:17.317Z,3.77
2019-01-16T01:43:04.429Z,3.40
2019-01-16T01:45:37.720Z,3.17
2019-01-16T01:48:11.748Z,3.40
2019-01-16T01:50:46.075Z,2.98
2019-01-16T01:53:18.340Z,3.30
2019-01-16T01:55:50.964Z,3.87
2019-01-16T01:58:40.998Z,2.67
2019-01-16T02:01:16.465Z,3.55
2019-01-16T02:03:50.744Z,3.10
2019-01-16T02:06:38.498Z,3.02
2019-01-16T02:09:10.040Z,3.65
2019-01-16T02:11:44.034Z,3.20
2019-01-16T02:14:18.255Z,3.35
2019-01-16T02:16:58.974Z,2.42
2019-01-16T02:19:33.092Z,3.60
2019-01-16T02:22:04.424Z,2.92
2019-01-16T02:24:38.720Z,2.98
2019-01-16T02:27:14.124Z,3.35
2019-01-16T02:29:54.292Z,4.00
2019-01-16T02:32:25.882Z,2.80
2019-01-16T02:35:05.389Z,2.65
2019-01-16T02:37:45.358Z,2.95
2019-01-16T02:40:26.617Z,3.40
2019-01-16T02:42:59.133Z,2.70
2019-01-16T02:45:33.286Z,2.62
2019-01-16T02:48:05.669Z,2.15
2019-01-16T02:50:38.210Z,3.02
2019-01-16T02:53:26.013Z,3.12
2019-01-16T02:56:04.188Z,2.90
2019-01-16T02:58:35.537Z,2.77
2019-01-16T03:01:09.070Z,2.90
2019-01-16T03:03:53.641Z,2.95
2019-01-16T03:06:33.084Z,3.42
2019-01-16T03:09:19.372Z,3.05
2019-01-16T03:11:50.966Z,3.17
2019-01-16T03:14:22.714Z,3.00
2019-01-16T03:16:57.142Z,3.45
2019-01-16T03:19:32.045Z,2.52
2019-01-16T03:22:03.748Z,2.95
2019-01-16T03:24:36.025Z,3.40
2019-01-16T03:27:10.476Z,2.85
2019-01-16T03:29:45.579Z,3.15
2019-01-16T03:32:36.633Z,2.05
2019-01-16T03:35:17.758Z,2.40
2019-01-16T03:37:52.741Z,2.70
2019-01-16T03:40:29.598Z,3.20
2019-01-16T03:43:15.098Z,2.33
2019-01-16T03:45:49.526Z,2.95
2019-01-16T03:48:31.059Z,3.37
2019-01-16T03:51:12.528Z,3.98
2019-01-16T03:54:03.128Z,2.80
2019-01-16T03:56:35.808Z,2.62
2019-01-16T03:59:22.272Z,3.10
2019-01-16T04:02:10.628Z,2.42
2019-01-16T04:04:58.202Z,2.83
2019-01-16T04:07:31.581Z,3.15
2019-01-16T04:10:18.805Z,2.70
2019-01-16T04:12:59.406Z,3.20
2019-01-16T04:15:39.140Z,2.62
2019-01-16T04:18:15.570Z,3.10
2019-01-16T04:20:47.985Z,2.62
2019-01-16T04:23:37.726Z,2.77
2019-01-16T04:26:13.741Z,2.65
2019-01-16T04:29:03.387Z,2.27
2019-01-16T04:31:39.758Z,3.22
2019-01-16T04:34:12.457Z,3.35
2019-01-16T04:36:53.101Z,3.70
2019-01-16T04:39:25.411Z,2.87
2019-01-16T04:41:59.998Z,3.00
2019-01-16T04:44:31.415Z,2.50
2019-01-16T04:47:02.992Z,3.00
2019-01-16T04:49:46.325Z,2.92
2019-01-16T04:52:18.898Z,2.90
2019-01-16T04:55:02.267Z,3.25
2019-01-16T04:57:51.714Z,3.15
2019-01-16T05:00:25.421Z,2.87
2019-01-16T05:03:13.143Z,3.22
2019-01-16T05:06:08.697Z,3.17
2019-01-16T05:08:42.577Z,2.60
2019-01-16T05:11:25.955Z,3.33
2019-01-16T05:13:57.306Z,2.60
2019-01-16T05:16:43.805Z,2.65
2019-01-16T05:19:21.940Z,3.55
2019-01-16T05:22:04.218Z,3.17
2019-01-16T05:24:50.618Z,3.05
2019-01-16T05:27:40.322Z,3.35
2019-01-16T05:30:16.933Z,3.10
2019-01-16T05:32:48.693Z,3.00
2019-01-16T05:35:20.421Z,3.02
2019-01-16T05:38:08.580Z,2.72
2019-01-16T05:40:45.822Z,2.75
2019-01-16T05:43:20.032Z,3.45
2019-01-16T05:46:03.431Z,3.40
2019-01-16T05:48:43.596Z,2.70
2019-01-16T05:51:27.241Z,2.52
2019-01-16T05:54:01.275Z,4.22
2019-01-16T05:56:34.685Z,3.83
2019-01-16T05:59:09.434Z,2.85
2019-01-16T06:01:56.930Z,3.17
2019-01-16T06:04:45.301Z,2.95
2019-01-16T06:07:19.561Z,3.52
2019-01-16T06:09:54.762Z,3.10
2019-01-16T06:12:31.091Z,3.83
2019-01-16T06:15:05.465Z,3.35
2019-01-16T06:17:36.952Z,2.70
2019-01-16T06:20:12.825Z,3.55
2019-01-16T06:22:47.165Z,3.33
2019-01-16T06:25:24.960Z,3.37
2019-01-16T06:28:01.714Z,3.27
2019-01-16T06:30:40.062Z,2.75
2019-01-16T06:33:11.782Z,2.87
2019-01-16T06:35:59.375Z,3.58
2019-01-16T06:38:40.521Z,2.87
2019-01-16T06:41:12.257Z,3.90
2019-01-16T06:43:44.821Z,3.37
2019-01-16T06:46:19.881Z,3.25
2019-01-16T06:48:52.431Z,3.05
2019-01-16T06:51:42.386Z,2.85
2019-01-16T06:54:30.622Z,2.62
2019-01-16T06:57:19.349Z,4.03
2019-01-16T06:59:51.887Z,3.25
2019-01-16T07:02:25.658Z,3.42
2019-01-16T07:04:57.158Z,3.33
2019-01-16T07:07:35.053Z,3.58
2019-01-16T07:10:26.598Z,2.67
2019-01-16T07:12:58.322Z,3.72
2019-01-16T07:15:46.045Z,2.75
2019-01-16T07:18:42.826Z,4.00
2019-01-16T07:21:14.309Z,3.62
2019-01-16T07:24:02.075Z,3.37
2019-01-16T07:26:37.499Z,3.22
2019-01-16T07:29:18.346Z,3.40
2019-01-16T07:31:52.810Z,3.12
2019-01-16T07:34:27.215Z,3.00
2019-01-16T07:37:19.603Z,2.95
2019-01-16T07:39:51.339Z,2.70
2019-01-16T07:42:38.896Z,2.77
2019-01-16T07:45:12.585Z,3.02
2019-01-16T07:47:44.306Z,3.30
2019-01-16T07:50:24.797Z,2.85
2019-01-16T07:53:11.499Z,3.40
2019-01-16T07:55:52.287Z,3.20
2019-01-16T07:58:24.015Z,2.45
2019-01-16T08:01:01.667Z,3.87
2019-01-16T08:03:49.690Z,2.62
2019-01-16T08:06:37.233Z,2.80
2019-01-16T08:09:23.259Z,2.70
2019-01-16T08:12:00.471Z,3.35
2019-01-16T08:14:48.469Z,3.58
2019-01-16T08:17:24.701Z,3.20
2019-01-16T08:19:59.393Z,3.45
2019-01-16T08:22:46.197Z,2.92
2019-01-16T08:25:26.765Z,2.60
2019-01-16T08:28:14.923Z,3.62
2019-01-16T08:30:52.137Z,3.20
2019-01-16T08:33:39.706Z,2.80
2019-01-16T08:36:22.131Z,3.45
2019-01-16T08:38:54.546Z,3.02
2019-01-16T08:41:31.341Z,2.98
2019-01-16T08:44:03.929Z,3.00
2019-01-16T08:46:35.645Z,3.92
2019-01-16T08:49:10.134Z,3.00
2019-01-16T08:51:41.859Z,3.17
2019-01-16T08:54:29.467Z,3.15
2019-01-16T08:57:17.510Z,3.35
2019-01-16T09:00:04.953Z,2.67
2019-01-16T09:02:38.955Z,2.80
2019-01-16T09:05:12.266Z,3.37
2019-01-16T09:07:56.482Z,4.03
2019-01-16T09:10:44.286Z,2.67
2019-01-16T09:13:15.878Z,3.40
2019-01-16T09:15:53.310Z,3.12
2019-01-16T09:18:24.761Z,2.90
2019-01-16T09:20:59.318Z,3.45
2019-01-16T09:23:36.345Z,2.77
2019-01-16T09:26:20.111Z,2.30
2019-01-16T09:28:54.771Z,2.98
2019-01-16T09:31:42.198Z,4.00
2019-01-16T09:34:16.430Z,3.47
2019-01-16T09:36:59.854Z,2.83
2019-01-16T09:39:43.258Z,1.85
2019-01-16T09:42:14.867Z,2.52
2019-01-16T09:45:05.257Z,2.50
2019-01-16T09:47:36.739Z,2.90
2019-01-16T09:50:14.299Z,2.65
2019-01-16T09:52:51.582Z,2.72
2019-01-16T09:55:26.251Z,2.77
2019-01-16T09:58:14.138Z,3.40
2019-01-16T10:00:45.466Z,3.92
2019-01-16T10:03:27.927Z,2.67
2019-01-16T10:06:05.146Z,3.00
2019-01-16T10:08:36.494Z,2.80
2019-01-16T10:11:14.096Z,2.20
2019-01-16T10:16:47.979Z,2.80
2019-01-16T10:19:25.915Z,3.15
2019-01-16T10:22:12.346Z,2.62
2019-01-16T10:24:43.682Z,3.47
2019-01-16T10:27:30.009Z,2.30
2019-01-16T10:30:08.262Z,2.97
2019-01-16T10:32:55.726Z,3.27
2019-01-16T10:35:39.315Z,2.63
2019-01-16T10:38:10.637Z,2.80
2019-01-16T10:40:41.966Z,2.50
2019-01-16T10:43:13.570Z,3.23
2019-01-16T10:45:45.299Z,3.43
2019-01-16T10:48:32.930Z,3.90
2019-01-16T10:54:04.082Z,3.40
2019-01-16T10:56:38.578Z,3.83
2019-01-16T10:59:09.910Z,3.20
2019-01-16T11:01:47.034Z,4.00
2019-01-16T11:04:24.082Z,3.40
2019-01-16T11:06:55.722Z,4.20
2019-01-16T11:09:27.065Z,3.97
2019-01-16T11:12:10.342Z,3.67
2019-01-16T11:14:56.434Z,3.20
2019-01-16T11:17:27.763Z,3.73
2019-01-16T11:20:08.014Z,3.92
2019-01-16T11:22:43.107Z,4.05
2019-01-16T11:25:14.422Z,4.13
2019-01-16T11:27:51.834Z,4.33
2019-01-16T11:30:23.422Z,4.15
2019-01-16T11:33:04.266Z,4.00
2019-01-16T11:35:48.234Z,4.00
2019-01-16T11:38:22.398Z,4.53
2019-01-16T11:40:53.975Z,3.60
2019-01-16T11:43:25.442Z,3.70
2019-01-16T11:46:06.463Z,4.40
2019-01-16T11:48:53.314Z,4.10
2019-01-16T11:51:33.903Z,4.47
2019-01-16T11:54:20.334Z,4.00
2019-01-16T11:56:51.674Z,4.53
2019-01-16T11:59:24.030Z,4.37
2019-01-16T12:02:05.035Z,4.45
2019-01-16T12:04:52.504Z,5.17
2019-01-16T12:07:39.066Z,5.50
2019-01-16T12:10:28.258Z,6.10
2019-01-16T12:12:59.618Z,4.90
2019-01-16T12:15:47.375Z,4.50
2019-01-16T12:18:21.806Z,4.83
2019-01-16T12:21:11.127Z,4.60
2019-01-16T12:23:51.322Z,5.60
2019-01-16T12:26:28.831Z,4.40
2019-01-16T12:29:03.508Z,3.93
2019-01-16T12:31:35.462Z,5.17
2019-01-16T12:34:09.903Z,4.87
2019-01-16T12:36:41.215Z,4.63
2019-01-16T12:39:15.570Z,5.17
2019-01-16T12:41:49.887Z,5.80
2019-01-16T12:44:23.910Z,4.20
2019-01-16T12:46:58.459Z,4.43
2019-01-16T12:49:39.199Z,5.20
2019-01-16T12:52:16.923Z,4.40
2019-01-16T12:54:48.374Z,4.90
2019-01-16T12:57:50.095Z,4.70
2019-01-16T13:00:27.658Z,5.83
2019-01-16T13:03:15.565Z,3.57
2019-01-16T13:06:04.146Z,5.33
2019-01-16T13:08:46.031Z,4.63
2019-01-16T13:11:27.158Z,5.13
2019-01-16T13:14:01.530Z,5.20
2019-01-16T13:16:33.867Z,5.47
2019-01-16T13:19:21.622Z,5.13
2019-01-16T13:22:08.966Z,5.73
2019-01-16T13:24:49.395Z,5.17
2019-01-16T13:27:26.735Z,5.70
2019-01-16T13:30:01.216Z,5.13
2019-01-16T13:32:50.041Z,5.20
2019-01-16T13:35:25.174Z,5.93
2019-01-16T13:38:12.227Z,5.07
2019-01-16T13:40:52.595Z,6.03
2019-01-16T13:43:26.559Z,5.47
2019-01-16T13:46:12.750Z,4.77
2019-01-16T13:48:52.788Z,5.17
2019-01-16T13:51:20.751Z,6.17
2019-01-16T13:53:58.040Z,5.17
2019-01-16T13:56:38.811Z,6.00
2019-01-16T13:59:22.595Z,6.00
2019-01-16T14:01:54.334Z,5.30
2019-01-16T14:04:28.565Z,5.20
2019-01-16T14:07:00.376Z,6.03
2019-01-16T14:09:41.147Z,4.70
2019-01-16T14:12:21.791Z,5.40
2019-01-16T14:15:11.633Z,6.30
2019-01-16T14:17:47.640Z,6.12
2019-01-16T14:20:34.537Z,6.60
2019-01-16T14:23:22.598Z,6.20
2019-01-16T14:26:10.344Z,6.53
2019-01-16T14:28:47.520Z,6.47
2019-01-16T14:31:38.063Z,6.15
2019-01-16T14:34:09.864Z,7.45
2019-01-16T14:37:06.395Z,6.15
2019-01-16T14:39:52.816Z,6.55
2019-01-16T14:42:27.174Z,6.45
2019-01-16T14:45:13.980Z,6.15
2019-01-16T14:47:48.639Z,7.60
2019-01-16T14:50:25.822Z,7.08
2019-01-16T14:53:09.239Z,7.55
2019-01-16T14:55:43.709Z,6.30
2019-01-16T14:58:33.351Z,7.85
2019-01-16T15:01:14.298Z,7.83
2019-01-16T15:03:54.819Z,8.35
2019-01-16T15:06:51.791Z,7.85
2019-01-16T15:09:23.481Z,8.38
2019-01-16T15:11:55.216Z,7.75
2019-01-16T15:14:43.147Z,8.35
2019-01-16T15:17:21.266Z,7.78
2019-01-16T15:19:56.040Z,7.53
2019-01-16T15:22:33.190Z,7.50
2019-01-16T15:25:07.791Z,7.00
2019-01-16T15:27:48.356Z,7.80
2019-01-16T15:30:32.005Z,7.45
2019-01-16T15:33:13.585Z,7.75
2019-01-16T15:35:45.999Z,7.62
2019-01-16T15:38:17.660Z,8.53
2019-01-16T15:41:07.912Z,8.23
2019-01-16T15:43:39.645Z,6.75
2019-01-16T15:46:17.952Z,7.08
2019-01-16T15:48:58.108Z,8.00
2019-01-16T15:51:41.780Z,7.25
2019-01-16T15:54:28.090Z,7.08
2019-01-16T15:57:11.538Z,6.40
2019-01-16T15:59:45.907Z,6.95
2019-01-16T16:02:26.344Z,6.22
2019-01-16T16:04:58.791Z,5.78
2019-01-16T16:07:39.127Z,5.22
2019-01-16T16:10:13.035Z,6.42
2019-01-16T16:12:59.475Z,6.33
2019-01-16T16:15:36.515Z,6.10
2019-01-16T16:18:16.775Z,6.20
2019-01-16T16:21:04.044Z,6.28
2019-01-16T16:23:36.560Z,6.22
2019-01-16T16:26:08.152Z,6.62
2019-01-16T16:29:01.967Z,6.25
2019-01-16T16:31:46.569Z,7.05
2019-01-16T16:34:21.221Z,7.15
2019-01-16T16:37:09.277Z,6.53
2019-01-16T16:39:47.727Z,6.87
2019-01-16T16:42:25.178Z,5.85
2019-01-16T16:45:09.129Z,6.90
2019-01-16T16:47:46.593Z,7.67
2019-01-16T16:50:33.307Z,8.10
2019-01-16T16:53:13.066Z,7.92
2019-01-16T16:55:50.523Z,7.87
2019-01-16T16:58:30.399Z,8.25
2019-01-16T17:01:19.563Z,8.20
2019-01-16T17:04:08.189Z,7.17
2019-01-16T17:06:55.835Z,5.70
2019-01-16T17:09:27.323Z,6.25
2019-01-16T17:12:13.452Z,6.35
2019-01-16T17:15:03.537Z,6.65
2019-01-16T17:17:47.195Z,6.25
2019-01-16T17:20:27.261Z,6.25
2019-01-16T17:23:04.869Z,6.30
2019-01-16T17:25:37.569Z,6.40
2019-01-16T17:28:15.485Z,5.10
2019-01-16T17:31:02.263Z,6.85
2019-01-16T17:33:55.693Z,6.05
2019-01-16T17:36:28.159Z,6.12
2019-01-16T17:39:18.468Z,6.12
2019-01-16T17:42:10.183Z,6.75
2019-01-16T17:44:47.171Z,5.40
2019-01-16T17:47:41.579Z,5.58
2019-01-16T17:50:21.295Z,5.83
2019-01-16T17:52:56.739Z,5.20
2019-01-16T17:55:55.975Z,5.70
2019-01-16T17:58:41.867Z,7.62
2019-01-16T18:01:13.535Z,6.35
2019-01-16T18:03:55.544Z,6.17
2019-01-16T18:06:35.475Z,6.05
2019-01-16T18:09:17.820Z,6.15
2019-01-16T18:11:58.536Z,6.58
2019-01-16T18:14:47.663Z,6.85
2019-01-16T18:17:22.647Z,6.45
2019-01-16T18:20:00.027Z,6.10
2019-01-16T18:22:31.796Z,5.62
2019-01-16T18:25:06.609Z,6.62
2019-01-16T18:27:56.411Z,6.75
2019-01-16T18:30:34.954Z,6.22
2019-01-16T18:33:24.576Z,7.15
2019-01-16T18:35:59.248Z,6.45
2019-01-16T18:38:50.931Z,6.70
2019-01-16T18:41:31.603Z,5.70
2019-01-16T18:44:20.823Z,7.42
2019-01-16T18:46:58.813Z,6.42
2019-01-16T18:49:55.624Z,6.30
2019-01-16T18:52:29.952Z,5.20
2019-01-16T18:55:04.040Z,5.50
2019-01-16T18:57:38.881Z,6.70
2019-01-16T19:00:22.708Z,6.80
2019-01-16T19:02:55.035Z,6.00
2019-01-16T19:05:32.088Z,6.08
2019-01-16T19:08:21.343Z,5.85
2019-01-16T19:11:02.881Z,6.53
2019-01-16T19:13:55.729Z,6.37
2019-01-16T19:16:36.367Z,6.95
2019-01-16T19:19:32.956Z,5.75
2019-01-16T19:22:07.247Z,5.97
2019-01-16T19:25:03.201Z,6.65
2019-01-16T19:27:45.521Z,5.80
2019-01-16T19:30:30.404Z,6.87
2019-01-16T19:33:14.295Z,5.50
2019-01-16T19:36:04.137Z,6.90
2019-01-16T19:38:42.685Z,7.30
2019-01-16T19:41:24.597Z,5.72
2019-01-16T19:44:14.156Z,5.30
2019-01-16T19:46:45.545Z,6.50
2019-01-16T19:49:39.493Z,6.35
2019-01-16T19:52:22.748Z,5.33
2019-01-16T19:54:56.877Z,5.97
2019-01-16T19:57:36.937Z,7.12
2019-01-16T20:00:14.201Z,5.97
2019-01-16T20:02:49.408Z,6.20
2019-01-16T20:05:41.162Z,6.28
2019-01-16T20:08:34.805Z,5.60
2019-01-16T20:11:22.856Z,6.72
2019-01-16T20:13:54.456Z,6.05
2019-01-16T20:16:27.941Z,5.42
2019-01-16T20:19:09.913Z,6.92
2019-01-16T20:22:00.177Z,6.12
2019-01-16T20:24:59.923Z,5.80
2019-01-16T20:27:50.784Z,5.92
2019-01-16T20:30:25.136Z,6.15
2019-01-16T20:32:56.873Z,6.40
2019-01-16T20:35:49.692Z,5.80
2019-01-16T20:38:24.305Z,5.00
2019-01-16T20:40:58.858Z,6.05
2019-01-16T20:43:36.468Z,5.90
2019-01-16T20:46:08.068Z,5.67
2019-01-16T20:48:39.396Z,5.20
2019-01-16T20:51:18.965Z,6.45
2019-01-16T20:53:59.848Z,5.90
2019-01-16T20:56:52.047Z,5.30
2019-01-16T20:59:26.351Z,6.17
2019-01-16T21:02:15.052Z,5.25
2019-01-16T21:05:02.928Z,6.75
2019-01-16T21:07:37.872Z,6.72
2019-01-16T21:10:20.773Z,6.53
2019-01-16T21:12:59.807Z,6.30
2019-01-16T21:15:51.769Z,7.25
2019-01-16T21:18:21.744Z,6.50
2019-01-16T21:20:59.104Z,6.87
2019-01-16T21:23:30.640Z,6.85
2019-01-16T21:26:02.249Z,5.97
2019-01-16T21:28:35.724Z,7.85
2019-01-16T21:31:19.220Z,6.25
2019-01-16T21:33:56.532Z,6.08
2019-01-16T21:36:33.966Z,6.10
2019-01-16T21:39:17.032Z,6.42
2019-01-16T21:42:04.652Z,6.50
2019-01-16T21:44:54.341Z,6.45
2019-01-16T21:47:44.532Z,5.53
2019-01-16T21:50:33.400Z,6.62
2019-01-16T21:53:21.638Z,5.53
2019-01-16T21:56:10.313Z,5.62
2019-01-16T21:58:46.700Z,5.60
2019-01-16T22:01:34.440Z,5.97
2019-01-16T22:04:15.346Z,6.17
2019-01-16T22:06:47.168Z,6.58
2019-01-16T22:09:19.868Z,6.33
2019-01-16T22:11:57.096Z,6.10
2019-01-16T22:14:31.924Z,5.80
2019-01-16T22:17:19.780Z,7.05
2019-01-16T22:19:58.036Z,5.67
2019-01-16T22:22:49.734Z,6.40
2019-01-16T22:25:22.200Z,5.97
2019-01-16T22:28:03.340Z,6.22
2019-01-16T22:30:52.947Z,5.40
2019-01-16T22:33:39.136Z,5.78
2019-01-16T22:36:23.964Z,6.33
2019-01-16T22:39:03.520Z,6.20
2019-01-16T22:41:37.066Z,7.15
2019-01-16T22:44:13.642Z,6.62
2019-01-16T22:46:47.098Z,6.40
2019-01-16T22:49:37.114Z,6.50
2019-01-16T22:52:08.859Z,4.87
2019-01-16T22:55:02.348Z,5.97
2019-01-16T22:57:39.676Z,5.97
2019-01-16T23:00:20.860Z,6.28
2019-01-16T23:03:04.154Z,5.97
2019-01-16T23:05:35.900Z,4.80
2019-01-16T23:08:13.121Z,7.20
2019-01-16T23:10:51.249Z,7.10
2019-01-16T23:13:29.470Z,6.50
2019-01-16T23:16:10.132Z,6.15
2019-01-16T23:18:57.908Z,5.90
2019-01-16T23:21:43.593Z,6.35
2019-01-16T23:24:33.284Z,6.53
2019-01-16T23:27:11.756Z,6.00
2019-01-16T23:29:50.398Z,5.72
2019-01-16T23:32:25.124Z,5.95
2019-01-16T23:34:58.522Z,5.35
2019-01-16T23:37:40.122Z,6.20
2019-01-16T23:40:17.781Z,6.10
2019-01-16T23:42:52.032Z,6.08
2019-01-16T23:45:23.512Z,5.03
2019-01-16T23:48:11.132Z,5.25
2019-01-16T23:50:58.612Z,5.97
2019-01-16T23:53:46.480Z,6.05
2019-01-16T23:56:36.424Z,5.33
2019-01-16T23:59:08.848Z,6.25
